Time;durP1;ratioP1;P1;durP2;ratioP2;P2;SDS_P1;SDS_P2;PMS_P1;PMS_P2;Temp;Humidity;BMP_temperature;BMP_pressure;BME280_temperature;BME280_humidity;BME280_pressure;Samples;Min_cycle;Max_cycle;Signal;HPM_P1;HPM_P2
2022/08/30 00:01:02;;;;;;;12.85;3.28;;;18.90;99.90;;;;;;6334468;22;19995;-88
2022/08/30 00:03:29;;;;;;;17.38;3.55;;;18.90;99.90;;;;;;6334496;22;20002;-86
2022/08/30 00:05:55;;;;;;;10.70;3.37;;;18.80;99.90;;;;;;6334007;22;20005;-86
2022/08/30 00:08:21;;;;;;;11.07;3.53;;;18.80;99.90;;;;;;6306526;22;20006;-85
2022/08/30 00:10:49;;;;;;;6.93;3.42;;;18.80;99.90;;;;;;6334412;22;19999;-88
2022/08/30 00:13:16;;;;;;;13.10;3.47;;;18.90;99.90;;;;;;6334471;22;20003;-87
2022/08/30 00:15:42;;;;;;;9.73;3.20;;;18.90;99.90;;;;;;6334354;22;19994;-86
2022/08/30 00:18:08;;;;;;;14.82;3.45;;;19.00;99.90;;;;;;6335159;22;20015;-89
2022/08/30 00:20:36;;;;;;;19.83;3.67;;;19.00;99.90;;;;;;6334431;22;20007;-88
2022/08/30 00:23:03;;;;;;;11.52;3.35;;;19.00;99.90;;;;;;6333799;22;20322;-88
2022/08/30 00:25:29;;;;;;;9.73;3.28;;;;;;;;;;6334190;22;20067;-87
2022/08/30 00:27:55;;;;;;;6.35;3.13;;;19.00;99.90;;;;;;6306238;22;20007;-89
2022/08/30 00:30:21;;;;;;;11.10;3.25;;;19.00;99.90;;;;;;6334167;22;20496;-89
2022/08/30 00:32:47;;;;;;;11.70;3.38;;;19.00;99.90;;;;;;6334325;22;20334;-88
2022/08/30 00:35:15;;;;;;;17.15;3.65;;;19.00;99.90;;;;;;6334549;22;20082;-87
2022/08/30 00:37:41;;;;;;;10.25;3.75;;;19.10;99.90;;;;;;6307158;22;20010;-88
2022/08/30 00:40:08;;;;;;;14.43;3.17;;;19.10;99.90;;;;;;6334459;22;20331;-89
2022/08/30 00:42:35;;;;;;;12.50;3.67;;;19.10;99.90;;;;;;6334382;22;20336;-88
2022/08/30 00:45:11;;;;;;;11.75;3.20;;;19.30;99.90;;;;;;6334119;22;20006;-88
2022/08/30 00:47:36;;;;;;;11.23;3.83;;;19.10;99.90;;;;;;6334110;22;19999;-85
2022/08/30 00:50:03;;;;;;;13.48;3.33;;;19.10;99.90;;;;;;6333516;22;20060;-86
2022/08/30 00:52:28;;;;;;;13.75;3.88;;;19.10;99.90;;;;;;6334350;22;20062;-87
2022/08/30 00:54:54;;;;;;;9.98;3.15;;;19.00;99.90;;;;;;6334402;22;20033;-86
2022/08/30 00:57:20;;;;;;;14.52;3.25;;;19.10;99.90;;;;;;6334042;22;19998;-85
2022/08/30 00:59:48;;;;;;;9.15;3.05;;;19.10;99.90;;;;;;6334133;22;20014;-86
2022/08/30 01:02:16;;;;;;;;;;;19.40;99.90;;;;;;6308440;22;19999;-88
2022/08/30 01:04:44;;;;;;;15.75;3.47;;;19.00;99.90;;;;;;6307297;22;19899;-88
2022/08/30 01:07:10;;;;;;;8.43;2.88;;;19.00;99.90;;;;;;6335175;22;20062;-88
2022/08/30 01:09:36;;;;;;;9.77;3.25;;;19.00;99.90;;;;;;6334254;22;20446;-86
2022/08/30 01:12:04;;;;;;;8.55;3.00;;;19.00;99.90;;;;;;6333716;22;19999;-86
2022/08/30 01:14:32;;;;;;;9.10;2.95;;;19.00;99.90;;;;;;6333824;22;19998;-89
2022/08/30 01:17:00;;;;;;;9.70;3.05;;;19.00;99.90;;;;;;6334619;22;20296;-88
2022/08/30 01:19:29;;;;;;;;;;;19.10;99.90;;;;;;6334513;22;20095;-87
2022/08/30 01:22:01;;;;;;;14.15;2.70;;;19.10;99.90;;;;;;6336002;22;19908;-87
2022/08/30 01:24:29;;;;;;;7.35;2.85;;;19.00;99.90;;;;;;6351699;22;20010;-86
2022/08/30 01:26:55;;;;;;;11.77;3.53;;;19.10;99.90;;;;;;6322794;22;20002;-88
2022/08/30 01:29:24;;;;;;;12.60;3.30;;;19.00;99.90;;;;;;6331117;22;20054;-88
2022/08/30 01:31:49;;;;;;;11.93;3.50;;;19.00;99.90;;;;;;6312979;22;20035;-89
2022/08/30 01:34:16;;;;;;;13.60;3.15;;;18.80;99.90;;;;;;6308979;22;20311;-89
2022/08/30 01:36:43;;;;;;;9.07;3.25;;;18.90;99.90;;;;;;6335444;22;20055;-89
2022/08/30 01:39:13;;;;;;;11.18;3.13;;;18.80;99.90;;;;;;6306027;22;20065;-88
2022/08/30 01:41:39;;;;;;;8.23;3.22;;;18.90;99.90;;;;;;6333210;22;20024;-90
2022/08/30 01:44:09;;;;;;;14.63;2.95;;;18.80;99.90;;;;;;6334179;22;20052;-87
2022/08/30 01:46:38;;;;;;;7.28;2.90;;;18.70;99.90;;;;;;6306259;22;20110;-89
2022/08/30 01:49:08;;;;;;;12.85;3.33;;;18.80;99.90;;;;;;6334171;22;20044;-88
2022/08/30 01:51:34;;;;;;;9.85;3.55;;;20.10;99.90;;;;;;6306379;22;20014;-89
2022/08/30 01:53:59;;;;;;;14.98;3.22;;;18.80;99.90;;;;;;6306237;22;20347;-90
2022/08/30 01:56:27;;;;;;;11.10;3.50;;;18.70;99.90;;;;;;6333632;22;20006;-86
2022/08/30 01:58:54;;;;;;;12.75;3.50;;;18.70;99.90;;;;;;6332886;22;20010;-85
2022/08/30 02:01:23;;;;;;;10.65;3.45;;;18.60;99.90;;;;;;6333140;22;19994;-86
2022/08/30 02:03:49;;;;;;;7.35;3.08;;;18.70;99.90;;;;;;6305734;22;20077;-87
2022/08/30 02:06:17;;;;;;;12.18;3.60;;;18.70;99.90;;;;;;6306727;22;20470;-88
2022/08/30 02:08:44;;;;;;;10.57;3.20;;;18.60;99.90;;;;;;6334433;22;20080;-88
2022/08/30 02:11:11;;;;;;;8.10;3.15;;;18.60;99.90;;;;;;6333445;22;20048;-88
2022/08/30 02:13:38;;;;;;;10.07;2.92;;;18.70;99.90;;;;;;6333716;22;19999;-89
2022/08/30 02:16:07;;;;;;;10.02;3.08;;;18.60;99.90;;;;;;6333637;22;20002;-87
2022/08/30 02:18:34;;;;;;;11.13;3.10;;;18.60;99.90;;;;;;6333435;22;20461;-85
2022/08/30 02:21:00;;;;;;;8.00;3.30;;;18.60;99.90;;;;;;6333010;22;20003;-86
2022/08/30 02:23:26;;;;;;;12.02;3.25;;;18.50;99.90;;;;;;6333284;22;20381;-85
2022/08/30 02:25:53;;;;;;;11.27;3.15;;;18.50;99.90;;;;;;6332897;22;20002;-86
2022/08/30 02:28:19;;;;;;;13.40;3.65;;;18.50;99.90;;;;;;6333035;22;20003;-87
2022/08/30 02:30:46;;;;;;;10.07;3.30;;;18.50;99.90;;;;;;6306720;22;20445;-88
2022/08/30 02:33:11;;;;;;;11.73;3.17;;;18.50;99.90;;;;;;6333457;22;20056;-86
2022/08/30 02:35:37;;;;;;;8.35;3.30;;;18.50;99.90;;;;;;6333094;22;20073;-89
2022/08/30 02:38:03;;;;;;;11.75;3.35;;;18.50;99.90;;;;;;6333028;22;20011;-88
2022/08/30 02:40:29;;;;;;;11.55;3.22;;;18.50;99.90;;;;;;6305496;22;20074;-85
2022/08/30 02:42:55;;;;;;;11.00;3.13;;;18.50;99.90;;;;;;6333258;22;20387;-86
2022/08/30 02:45:22;;;;;;;10.55;2.95;;;;;;;;;;6306230;22;19999;-88
2022/08/30 02:47:48;;;;;;;9.98;3.13;;;18.40;99.90;;;;;;6308087;22;19999;-88
2022/08/30 02:50:14;;;;;;;9.02;3.22;;;18.40;99.90;;;;;;6307464;22;20030;-85
2022/08/30 02:52:40;;;;;;;7.72;3.30;;;18.50;99.90;;;;;;6307390;22;20273;-86
2022/08/30 02:55:07;;;;;;;11.07;2.97;;;18.50;99.90;;;;;;6334569;22;20010;-86
2022/08/30 02:57:32;;;;;;;7.20;3.03;;;18.40;99.90;;;;;;6334884;22;20003;-88
2022/08/30 02:59:58;;;;;;;7.20;3.15;;;18.40;99.90;;;;;;6334267;22;20032;-86
2022/08/30 03:02:25;;;;;;;9.02;3.08;;;18.40;99.90;;;;;;6335133;22;20397;-89
2022/08/30 03:04:51;;;;;;;6.70;2.97;;;18.40;99.90;;;;;;6307573;22;20011;-87
2022/08/30 03:07:16;;;;;;;12.10;3.22;;;18.30;99.90;;;;;;6308276;22;20059;-86
2022/08/30 03:09:42;;;;;;;8.45;3.30;;;18.30;99.90;;;;;;6307131;22;20003;-87
2022/08/30 03:12:09;;;;;;;14.40;3.20;;;18.20;99.90;;;;;;6335332;22;20005;-86
2022/08/30 03:14:37;;;;;;;9.35;3.25;;;18.20;99.90;;;;;;6334899;22;20029;-86
2022/08/30 03:17:06;;;;;;;8.25;3.20;;;18.10;99.90;;;;;;6334890;22;20078;-87
2022/08/30 03:19:33;;;;;;;9.63;3.58;;;18.50;99.90;;;;;;6333672;22;20070;-86
2022/08/30 03:21:58;;;;;;;8.90;3.38;;;18.20;99.90;;;;;;6334532;22;20002;-88
2022/08/30 03:24:24;;;;;;;10.10;3.38;;;18.10;99.90;;;;;;6334386;22;19999;-88
2022/08/30 03:26:51;;;;;;;12.48;3.42;;;17.90;99.90;;;;;;6308137;22;20342;-86
2022/08/30 03:29:17;;;;;;;7.03;2.95;;;18.00;99.90;;;;;;6307353;22;20311;-87
2022/08/30 03:31:42;;;;;;;12.10;3.47;;;17.70;99.90;;;;;;6334383;22;20006;-86
2022/08/30 03:34:09;;;;;;;9.55;3.30;;;17.80;99.90;;;;;;6334554;22;20003;-86
2022/08/30 03:36:37;;;;;;;7.28;2.90;;;18.00;99.90;;;;;;6334348;22;20010;-85
2022/08/30 03:39:05;;;;;;;9.65;3.10;;;17.90;99.90;;;;;;6307426;22;20018;-90
2022/08/30 03:41:31;;;;;;;10.93;3.70;;;17.80;99.90;;;;;;6335598;22;19999;-90
2022/08/30 03:43:58;;;;;;;6.18;3.17;;;17.80;99.90;;;;;;6338549;22;20010;-88
2022/08/30 03:46:24;;;;;;;11.75;3.20;;;18.00;99.90;;;;;;6336390;22;19999;-88
2022/08/30 03:48:50;;;;;;;11.10;3.47;;;17.80;99.90;;;;;;6336539;22;19999;-89
2022/08/30 03:51:17;;;;;;;13.95;3.25;;;18.50;99.90;;;;;;6335251;22;19999;-89
2022/08/30 03:53:43;;;;;;;8.43;3.90;;;17.70;99.90;;;;;;6336332;22;20051;-88
2022/08/30 03:56:09;;;;;;;7.30;3.15;;;17.90;99.90;;;;;;6335856;22;20432;-86
2022/08/30 03:58:35;;;;;;;10.05;3.40;;;17.60;99.90;;;;;;6336430;22;20038;-87
2022/08/30 04:01:01;;;;;;;14.98;3.55;;;17.40;99.90;;;;;;6335127;22;20454;-88
2022/08/30 04:03:27;;;;;;;10.60;3.33;;;17.40;99.90;;;;;;6332832;22;20390;-87
2022/08/30 04:05:54;;;;;;;11.35;3.50;;;17.50;99.90;;;;;;6343737;22;20013;-88
2022/08/30 04:08:20;;;;;;;12.43;3.60;;;17.10;99.90;;;;;;6357493;22;20006;-88
2022/08/30 04:10:46;;;;;;;7.70;3.25;;;17.60;99.90;;;;;;6330295;22;19999;-87
2022/08/30 04:13:13;;;;;;;14.30;3.67;;;17.40;99.90;;;;;;6328309;22;20011;-88
2022/08/30 04:15:39;;;;;;;7.22;3.20;;;17.30;99.90;;;;;;6309231;22;20434;-87
2022/08/30 04:18:05;;;;;;;10.23;3.50;;;17.30;99.90;;;;;;6334290;22;20094;-85
2022/08/30 04:20:30;;;;;;;7.85;3.30;;;17.30;99.90;;;;;;6335146;22;20009;-88
2022/08/30 04:22:56;;;;;;;9.52;3.65;;;17.40;99.90;;;;;;6334386;22;20021;-86
2022/08/30 04:25:22;;;;;;;8.25;3.50;;;17.30;99.90;;;;;;6335079;22;19995;-87
2022/08/30 04:27:48;;;;;;;6.72;3.55;;;16.80;99.90;;;;;;6334218;22;20003;-87
2022/08/30 04:30:15;;;;;;;12.30;3.33;;;17.10;99.90;;;;;;6327203;22;20074;-86
2022/08/30 04:32:42;;;;;;;9.23;3.47;;;17.10;99.90;;;;;;6303684;22;20003;-87
2022/08/30 04:35:09;;;;;;;7.00;3.47;;;17.10;99.90;;;;;;6332141;22;19998;-88
2022/08/30 04:37:36;;;;;;;8.15;3.30;;;17.10;99.90;;;;;;6332988;22;20011;-86
2022/08/30 04:40:02;;;;;;;11.25;3.35;;;17.10;99.90;;;;;;6332812;22;20006;-87
2022/08/30 04:42:31;;;;;;;11.90;3.35;;;17.10;99.90;;;;;;6333233;22;19998;-86
2022/08/30 04:44:59;;;;;;;8.07;3.75;;;17.00;99.90;;;;;;6333070;22;20011;-87
2022/08/30 04:47:25;;;;;;;8.38;3.85;;;17.20;99.90;;;;;;6334148;22;19999;-86
2022/08/30 04:49:51;;;;;;;11.25;3.38;;;16.80;99.90;;;;;;6305772;22;19999;-86
2022/08/30 04:52:18;;;;;;;10.48;3.42;;;17.00;99.90;;;;;;6332356;22;20003;-86
2022/08/30 04:54:43;;;;;;;9.15;3.53;;;16.90;99.90;;;;;;6333333;22;19995;-86
2022/08/30 04:57:09;;;;;;;7.05;3.35;;;17.00;99.90;;;;;;6333551;22;20064;-86
2022/08/30 04:59:36;;;;;;;10.07;3.85;;;16.90;99.90;;;;;;6305268;22;20025;-86
2022/08/30 05:02:02;;;;;;;12.25;3.72;;;16.90;99.90;;;;;;6333345;22;20017;-86
2022/08/30 05:04:28;;;;;;;7.60;3.67;;;16.80;99.90;;;;;;6333700;22;20002;-87
2022/08/30 05:06:53;;;;;;;10.90;3.80;;;16.50;99.90;;;;;;6306180;22;20348;-87
2022/08/30 05:09:20;;;;;;;8.82;3.50;;;16.90;99.90;;;;;;6333429;22;20065;-86
2022/08/30 05:11:46;;;;;;;13.93;3.90;;;17.00;99.90;;;;;;6333623;22;20007;-87
2022/08/30 05:14:12;;;;;;;6.93;3.45;;;16.60;99.90;;;;;;6333016;22;20006;-88
2022/08/30 05:16:38;;;;;;;7.95;3.47;;;16.60;99.90;;;;;;6333811;22;20392;-86
2022/08/30 05:19:04;;;;;;;8.38;3.50;;;16.60;99.90;;;;;;6332984;22;20015;-85
2022/08/30 05:21:30;;;;;;;12.52;4.15;;;16.60;99.90;;;;;;6333820;22;20018;-87
2022/08/30 05:23:58;;;;;;;8.88;3.28;;;16.60;99.90;;;;;;6334654;22;20006;-87
2022/08/30 05:26:30;;;;;;;9.23;3.80;;;17.40;99.90;;;;;;6334610;22;20036;-86
2022/08/30 05:28:56;;;;;;;11.82;3.80;;;17.30;99.90;;;;;;6334578;22;20002;-86
2022/08/30 05:31:30;;;;;;;7.47;3.50;;;16.80;99.90;;;;;;6333619;22;20487;-87
2022/08/30 05:33:56;;;;;;;12.32;3.65;;;16.80;99.90;;;;;;6335016;22;20389;-86
2022/08/30 05:36:25;;;;;;;8.23;3.33;;;16.80;99.90;;;;;;6333153;22;19999;-86
2022/08/30 05:38:51;;;;;;;9.57;3.47;;;16.70;99.90;;;;;;6305998;22;20465;-86
2022/08/30 05:41:19;;;;;;;12.30;4.00;;;16.80;99.90;;;;;;6306072;22;20009;-86
2022/08/30 05:43:45;;;;;;;11.55;3.30;;;16.80;99.90;;;;;;6333585;22;20003;-87
2022/08/30 05:46:13;;;;;;;8.30;3.63;;;17.30;99.90;;;;;;6305411;22;20007;-88
2022/08/30 05:48:39;;;;;;;;;;;16.60;99.90;;;;;;6334351;22;20032;-87
2022/08/30 05:51:08;;;;;;;12.00;3.80;;;16.60;99.90;;;;;;6333857;22;19902;-89
2022/08/30 05:53:34;;;;;;;9.27;3.80;;;16.50;99.90;;;;;;6333346;22;20324;-88
2022/08/30 05:56:02;;;;;;;9.05;3.63;;;16.60;99.90;;;;;;6333502;22;20006;-86
2022/08/30 05:58:29;;;;;;;10.48;3.50;;;16.60;99.90;;;;;;6334402;22;20007;-89
2022/08/30 06:00:54;;;;;;;11.63;3.88;;;16.70;99.90;;;;;;6334712;22;19999;-88
2022/08/30 06:03:20;;;;;;;8.73;3.50;;;16.70;99.90;;;;;;6334702;22;20013;-88
2022/08/30 06:05:46;;;;;;;7.10;3.88;;;16.70;99.90;;;;;;6334156;22;20002;-88
2022/08/30 06:08:11;;;;;;;10.02;3.72;;;16.70;99.90;;;;;;6333194;22;20003;-88
2022/08/30 06:10:37;;;;;;;13.88;3.80;;;16.70;99.90;;;;;;6333296;22;20005;-87
2022/08/30 06:13:03;;;;;;;13.85;4.30;;;16.60;99.90;;;;;;6333521;22;20003;-88
2022/08/30 06:15:28;;;;;;;7.78;4.40;;;16.60;99.90;;;;;;6334294;22;20120;-89
2022/08/30 06:17:55;;;;;;;8.38;3.90;;;16.50;99.90;;;;;;6333271;22;20003;-88
2022/08/30 06:20:20;;;;;;;13.40;4.13;;;16.60;99.90;;;;;;6334591;22;20538;-88
2022/08/30 06:22:46;;;;;;;6.00;3.70;;;16.60;99.90;;;;;;6335545;22;20427;-88
2022/08/30 06:25:13;;;;;;;18.02;4.60;;;16.70;99.90;;;;;;6334469;22;20033;-88
2022/08/30 06:27:39;;;;;;;11.23;3.97;;;16.50;99.90;;;;;;6335297;22;20003;-88
2022/08/30 06:30:09;;;;;;;7.60;3.53;;;16.50;99.90;;;;;;6335812;22;19994;-87
2022/08/30 06:32:36;;;;;;;8.70;3.85;;;16.40;99.90;;;;;;6308557;22;20013;-88
2022/08/30 06:35:03;;;;;;;7.55;3.45;;;16.60;99.90;;;;;;6335682;22;19999;-88
2022/08/30 06:37:29;;;;;;;9.90;4.00;;;16.60;99.90;;;;;;6336277;22;20006;-88
2022/08/30 06:39:56;;;;;;;9.52;3.60;;;16.70;99.90;;;;;;6308307;22;20007;-88
2022/08/30 06:42:23;;;;;;;13.45;3.97;;;16.70;99.90;;;;;;6335416;22;20003;-87
2022/08/30 06:44:49;;;;;;;9.18;3.70;;;16.70;99.90;;;;;;6334780;22;20053;-88
2022/08/30 06:47:14;;;;;;;9.55;3.42;;;16.70;99.90;;;;;;6334094;22;20042;-87
2022/08/30 06:49:40;;;;;;;8.75;3.20;;;16.80;99.90;;;;;;6312984;22;20003;-88
2022/08/30 06:52:06;;;;;;;7.28;3.80;;;16.80;99.90;;;;;;6319479;22;19999;-87
2022/08/30 06:54:32;;;;;;;12.30;3.72;;;16.90;99.90;;;;;;6349353;22;20338;-87
2022/08/30 06:56:57;;;;;;;13.50;3.65;;;17.10;99.90;;;;;;6355995;22;20058;-87
2022/08/30 06:59:26;;;;;;;10.60;3.65;;;17.30;99.90;;;;;;6337972;22;20021;-88
2022/08/30 07:01:52;;;;;;;9.52;4.55;;;16.10;99.90;;;;;;6337165;22;19995;-88
2022/08/30 07:04:18;;;;;;;13.00;3.63;;;17.60;99.90;;;;;;6307669;22;20007;-88
2022/08/30 07:06:44;;;;;;;8.88;3.25;;;18.00;99.90;;;;;;6333914;22;20070;-87
2022/08/30 07:09:10;;;;;;;7.85;3.60;;;17.80;99.90;;;;;;6334190;22;20030;-87
2022/08/30 07:11:37;;;;;;;9.43;3.60;;;17.50;99.90;;;;;;6333979;22;19999;-86
2022/08/30 07:14:05;;;;;;;7.10;3.57;;;18.00;99.90;;;;;;6333758;22;20003;-86
2022/08/30 07:16:31;;;;;;;7.70;3.30;;;17.70;99.90;;;;;;6334419;22;20003;-88
2022/08/30 07:18:57;;;;;;;13.95;4.30;;;17.80;99.90;;;;;;6334490;22;20014;-87
2022/08/30 07:21:31;;;;;;;7.95;3.75;;;17.90;99.90;;;;;;6333787;22;20006;-87
2022/08/30 07:23:58;;;;;;;12.48;3.75;;;18.00;99.90;;;;;;6334067;22;20082;-86
2022/08/30 07:26:27;;;;;;;9.05;3.50;;;18.20;99.90;;;;;;6333510;22;20022;-89
2022/08/30 07:28:53;;;;;;;6.53;3.42;;;18.20;99.90;;;;;;6332846;22;20027;-88
2022/08/30 07:31:20;;;;;;;9.88;3.45;;;17.20;99.90;;;;;;6333024;22;20002;-88
2022/08/30 07:33:46;;;;;;;12.30;3.60;;;18.50;99.90;;;;;;6333230;22;20471;-87
2022/08/30 07:36:12;;;;;;;8.40;3.20;;;18.70;99.90;;;;;;6332908;22;20002;-87
2022/08/30 07:38:38;;;;;;;7.30;3.55;;;18.70;99.90;;;;;;6332352;22;20033;-88
2022/08/30 07:41:05;;;;;;;9.85;3.78;;;19.00;99.90;;;;;;6305757;22;20435;-88
2022/08/30 07:43:32;;;;;;;10.93;3.42;;;19.00;99.90;;;;;;6335029;22;19999;-87
2022/08/30 07:46:06;;;;;;;7.55;3.33;;;19.40;99.90;;;;;;6335335;22;20070;-89
2022/08/30 07:48:32;;;;;;;12.93;3.70;;;19.20;99.90;;;;;;6307116;22;20034;-88
2022/08/30 07:50:59;;;;;;;10.68;3.70;;;;;;;;;;6334915;22;19994;-88
2022/08/30 07:53:25;;;;;;;9.88;3.90;;;;;;;;;;6334610;22;20033;-88
2022/08/30 07:55:51;;;;;;;11.60;3.63;;;;;;;;;;6307316;22;20030;-89
2022/08/30 07:58:17;;;;;;;10.82;3.67;;;19.70;99.90;;;;;;6333396;22;20002;-88
2022/08/30 08:00:42;;;;;;;10.45;3.85;;;19.80;99.90;;;;;;6333756;22;20009;-88
2022/08/30 08:03:09;;;;;;;8.60;3.75;;;19.90;99.90;;;;;;6306168;22;20002;-90
2022/08/30 08:05:43;;;;;;;11.35;3.78;;;20.80;99.90;;;;;;6333700;22;19998;-88
2022/08/30 08:08:10;;;;;;;8.63;3.60;;;20.10;99.90;;;;;;6305891;22;20086;-88
2022/08/30 08:10:39;;;;;;;8.75;3.50;;;20.30;99.90;;;;;;6307231;22;20045;-87
2022/08/30 08:13:05;;;;;;;10.27;3.70;;;20.40;99.90;;;;;;6307050;22;20089;-89
2022/08/30 08:15:31;;;;;;;11.55;3.28;;;20.50;99.90;;;;;;6335620;22;19995;-87
2022/08/30 08:17:57;;;;;;;6.72;3.53;;;20.80;99.90;;;;;;6306575;22;20022;-89
2022/08/30 08:20:24;;;;;;;11.52;3.50;;;20.60;99.90;;;;;;6335205;22;20282;-88
2022/08/30 08:22:50;;;;;;;9.88;3.50;;;20.80;99.90;;;;;;6334126;22;20010;-87
2022/08/30 08:25:16;;;;;;;14.20;3.60;;;20.90;99.90;;;;;;6334431;22;20002;-88
2022/08/30 08:27:42;;;;;;;13.77;3.60;;;21.30;99.90;;;;;;6334341;22;20331;-88
2022/08/30 08:30:09;;;;;;;6.10;3.60;;;21.30;99.90;;;;;;6329082;22;20003;-88
2022/08/30 08:32:34;;;;;;;11.57;4.07;;;21.30;99.90;;;;;;6330914;22;19999;-87
2022/08/30 08:35:01;;;;;;;11.25;3.67;;;21.40;99.90;;;;;;6331599;22;20009;-87
2022/08/30 08:37:27;;;;;;;7.70;3.60;;;21.50;99.90;;;;;;6331104;22;20009;-88
2022/08/30 08:39:52;;;;;;;13.40;3.90;;;21.40;99.90;;;;;;6331521;22;20082;-89
2022/08/30 08:42:50;;;;;;;10.80;3.78;;;21.40;99.90;;;;;;6303910;22;20343;-89
2022/08/30 08:45:31;;;;;;;11.65;3.47;;;21.40;99.90;;;;;;6331488;22;20013;-87
2022/08/30 08:47:57;;;;;;;7.85;3.20;;;21.60;99.90;;;;;;6331651;22;20005;-87
2022/08/30 08:50:23;;;;;;;8.02;3.72;;;21.70;99.90;;;;;;6331574;22;20007;-88
2022/08/30 08:55:49;;;;;;;7.20;3.70;;;22.10;99.90;;;;;;6330756;22;20009;-87
2022/08/30 08:58:27;;;;;;;6.82;3.50;;;22.20;99.90;;;;;;6331304;22;20026;-87
2022/08/30 09:00:55;;;;;;;9.20;3.40;;;22.30;99.90;;;;;;6331324;22;20162;-88
2022/08/30 09:03:25;;;;;;;10.38;3.83;;;22.40;99.90;;;;;;6330886;22;20474;-88
2022/08/30 09:05:52;;;;;;;9.68;3.45;;;22.60;99.90;;;;;;6302815;22;20351;-89
2022/08/30 09:08:19;;;;;;;8.35;3.65;;;22.60;99.90;;;;;;6303616;22;20867;-87
2022/08/30 09:10:55;;;;;;;10.40;4.03;;;22.60;99.90;;;;;;6303925;22;20040;-89
2022/08/30 09:13:23;;;;;;;10.40;3.72;;;22.60;99.90;;;;;;6303300;22;20168;-89
2022/08/30 09:15:52;;;;;;;11.45;3.78;;;22.70;99.90;;;;;;6304092;22;20032;-89
2022/08/30 09:18:18;;;;;;;8.60;3.40;;;23.00;99.90;;;;;;6332557;22;20018;-90
2022/08/30 09:20:47;;;;;;;8.30;3.38;;;22.80;99.90;;;;;;6333536;22;20006;-90
2022/08/30 09:23:13;;;;;;;14.88;3.78;;;23.00;99.90;;;;;;6334193;22;20005;-89
2022/08/30 09:25:51;;;;;;;5.72;3.35;;;23.00;99.90;;;;;;6306554;22;20027;-88
2022/08/30 09:28:43;;;;;;;6.80;3.40;;;24.10;99.90;;;;;;6334063;22;20010;-88
2022/08/30 09:31:47;;;;;;;10.57;3.42;;;23.50;99.90;;;;;;6334333;22;20002;-89
2022/08/30 09:34:21;;;;;;;9.50;3.63;;;23.50;99.90;;;;;;6339410;22;20051;-89
2022/08/30 09:36:52;;;;;;;7.60;3.50;;;23.40;99.90;;;;;;6358222;22;20054;-88
2022/08/30 09:39:36;;;;;;;8.10;3.70;;;23.40;99.90;;;;;;6332714;22;19994;-86
2022/08/30 09:42:24;;;;;;;11.95;3.90;;;22.20;99.90;;;;;;6354979;22;20066;-88
2022/08/30 09:44:51;;;;;;;7.90;3.70;;;23.60;99.90;;;;;;6303872;22;20087;-89
2022/08/30 09:47:23;;;;;;;12.38;3.85;;;23.70;99.90;;;;;;6301520;22;20010;-87
2022/08/30 09:49:49;;;;;;;10.90;3.78;;;23.80;99.90;;;;;;6328505;22;20013;-88
2022/08/30 09:52:51;;;;;;;6.60;3.70;;;23.90;99.90;;;;;;6329266;22;20614;-88
2022/08/30 09:55:36;;;;;;;13.85;3.78;;;24.00;99.90;;;;;;6331375;22;20082;-89
2022/08/30 09:58:26;;;;;;;8.27;3.92;;;24.20;99.90;;;;;;6306145;22;20443;-87
2022/08/30 10:01:14;;;;;;;9.95;3.63;;;24.40;99.90;;;;;;6305614;22;20003;-87
2022/08/30 10:03:55;;;;;;;;;;;24.10;99.90;;;;;;6305899;22;20055;-88
2022/08/30 10:06:35;;;;;;;8.82;3.50;;;24.20;99.90;;;;;;6304195;22;19944;-88
2022/08/30 10:09:05;;;;;;;11.65;3.83;;;24.20;99.90;;;;;;6333703;22;20075;-88
2022/08/30 10:11:37;;;;;;;8.35;3.97;;;24.30;99.90;;;;;;6333068;22;20003;-88
2022/08/30 10:14:28;;;;;;;8.55;3.88;;;24.40;99.90;;;;;;6305930;22;20011;-87
2022/08/30 10:17:17;;;;;;;9.98;3.55;;;24.30;99.90;;;;;;6332508;22;20006;-89
2022/08/30 10:20:20;;;;;;;9.07;3.60;;;24.50;99.90;;;;;;6332096;22;20397;-89
2022/08/30 10:23:15;;;;;;;17.48;3.83;;;24.60;99.90;;;;;;6332658;22;20101;-89
2022/08/30 10:26:18;;;;;;;10.80;3.80;;;24.60;99.90;;;;;;6305471;22;20481;-90
2022/08/30 10:28:58;;;;;;;6.72;3.58;;;25.40;99.90;;;;;;6221648;22;20391;-87
2022/08/30 10:31:27;;;;;;;12.85;4.05;;;24.10;99.90;;;;;;6305858;22;20033;-89
2022/08/30 10:33:59;;;;;;;6.53;3.47;;;24.60;99.90;;;;;;6333277;22;20283;-90
2022/08/30 10:36:39;;;;;;;10.05;3.55;;;26.20;99.90;;;;;;6336580;22;20439;-89
2022/08/30 10:39:09;;;;;;;6.35;3.40;;;24.90;99.90;;;;;;6306121;22;20015;-90
2022/08/30 10:41:47;;;;;;;10.57;3.80;;;24.90;99.90;;;;;;6305716;22;20002;-90
2022/08/30 10:44:32;;;;;;;8.65;3.63;;;25.30;99.90;;;;;;6307303;22;20003;-89
2022/08/30 10:47:39;;;;;;;11.32;3.97;;;25.40;99.90;;;;;;6336793;22;20007;-90
2022/08/30 10:50:14;;;;;;;7.10;3.55;;;25.40;99.90;;;;;;6336456;22;20343;-90
2022/08/30 10:52:49;;;;;;;10.48;3.83;;;26.70;99.90;;;;;;6308851;22;20006;-90
2022/08/30 10:55:23;;;;;;;13.05;3.22;;;25.60;99.90;;;;;;6307983;22;20014;-89
2022/08/30 10:57:49;;;;;;;8.38;3.20;;;25.50;99.90;;;;;;6308130;22;20013;-88
2022/08/30 11:00:23;;;;;;;8.15;3.42;;;25.60;99.90;;;;;;6335091;22;19998;-89
2022/08/30 11:03:04;;;;;;;9.77;3.30;;;25.90;99.90;;;;;;6308250;22;19999;-86
2022/08/30 11:05:46;;;;;;;14.05;3.90;;;25.60;99.90;;;;;;6308264;22;20434;-89
2022/08/30 11:08:45;;;;;;;5.03;3.05;;;26.00;99.90;;;;;;6335638;22;20082;-88
2022/08/30 11:11:59;;;;;;;9.70;3.83;;;25.70;99.90;;;;;;6307684;22;20052;-88
2022/08/30 11:14:25;;;;;;;8.45;3.38;;;26.10;99.90;;;;;;6180509;23;20013;-87
2022/08/30 11:16:54;;;;;;;8.98;3.70;;;25.60;99.90;;;;;;6293459;22;19999;-88
2022/08/30 11:19:41;;;;;;;10.68;3.53;;;26.30;99.90;;;;;;6307619;22;20018;-88
2022/08/30 11:22:15;;;;;;;12.77;3.53;;;25.80;99.90;;;;;;6307304;22;20450;-87
2022/08/30 11:25:08;;;;;;;6.63;3.70;;;25.90;99.90;;;;;;6335397;22;20077;-87
2022/08/30 11:27:57;;;;;;;10.77;3.92;;;25.80;99.90;;;;;;6336129;22;20003;-86
2022/08/30 11:30:23;;;;;;;6.20;3.40;;;25.80;99.90;;;;;;6335915;22;19999;-87
2022/08/30 11:33:08;;;;;;;5.63;3.20;;;25.80;99.90;;;;;;6334344;22;19999;-88
2022/08/30 11:35:48;;;;;;;5.93;3.30;;;25.80;99.90;;;;;;6335734;22;20006;-88
2022/08/30 11:38:25;;;;;;;8.35;3.72;;;25.90;99.90;;;;;;6335425;22;20335;-89
2022/08/30 11:40:56;;;;;;;7.40;3.47;;;26.00;99.90;;;;;;6335530;22;20005;-90
2022/08/30 11:43:34;;;;;;;10.43;3.70;;;26.00;99.90;;;;;;6335751;22;20044;-89
2022/08/30 11:46:23;;;;;;;8.25;3.53;;;26.10;99.90;;;;;;6336692;22;19999;-90
2022/08/30 11:49:13;;;;;;;6.15;3.60;;;26.00;99.90;;;;;;6308264;22;20469;-89
2022/08/30 11:52:03;;;;;;;8.05;3.65;;;26.00;99.90;;;;;;6307618;22;19999;-89
2022/08/30 11:54:59;;;;;;;5.28;3.30;;;26.10;99.90;;;;;;6334013;22;20003;-89
2022/08/30 11:57:44;;;;;;;0.00;0.00;;;26.30;99.90;;;;;;6334171;22;20458;-88
2022/08/30 12:00:29;;;;;;;0.00;0.00;;;26.30;99.90;;;;;;6307113;22;20011;-88
2022/08/30 12:03:33;;;;;;;0.00;0.00;;;26.20;99.90;;;;;;6307356;22;20002;-90
2022/08/30 12:06:07;;;;;;;0.00;0.00;;;26.30;99.90;;;;;;6334140;22;20022;-89
2022/08/30 12:08:35;;;;;;;0.00;0.00;;;26.70;99.90;;;;;;6335961;22;19999;-90
2022/08/30 12:11:03;;;;;;;0.00;0.00;;;27.50;99.90;;;;;;6308289;22;20006;-89
2022/08/30 12:13:35;;;;;;;6.45;3.72;;;26.50;99.90;;;;;;6334058;22;19999;-91
2022/08/30 12:16:21;;;;;;;8.80;3.60;;;26.70;99.90;;;;;;6335290;22;20006;-89
2022/08/30 12:18:51;;;;;;;5.50;3.35;;;26.50;99.90;;;;;;6307808;22;20018;-89
2022/08/30 12:21:25;;;;;;;9.15;3.40;;;26.60;99.90;;;;;;6359253;22;20022;-90
2022/08/30 12:23:53;;;;;;;7.60;3.78;;;26.80;99.90;;;;;;6333555;22;20003;-89
2022/08/30 12:26:33;;;;;;;7.65;3.40;;;27.40;99.90;;;;;;6363261;22;19982;-89
2022/08/30 12:29:08;;;;;;;6.95;3.42;;;25.20;99.90;;;;;;6312473;22;20011;-88
2022/08/30 12:31:58;;;;;;;6.10;3.33;;;27.50;99.90;;;;;;6338245;22;20468;-90
2022/08/30 12:34:51;;;;;;;8.43;3.38;;;26.90;99.90;;;;;;6306031;22;19999;-89
2022/08/30 12:37:36;;;;;;;6.45;3.67;;;27.00;99.90;;;;;;6333367;22;20060;-90
2022/08/30 12:40:07;;;;;;;7.78;3.50;;;27.20;99.90;;;;;;6307868;22;20509;-90
2022/08/30 12:42:36;;;;;;;9.18;3.25;;;27.20;99.90;;;;;;6308073;22;20055;-90
2022/08/30 12:45:11;;;;;;;7.40;3.80;;;27.30;99.90;;;;;;6336017;22;20077;-89
2022/08/30 12:47:45;;;;;;;7.30;4.00;;;27.30;99.90;;;;;;6337267;22;19998;-88
2022/08/30 12:50:19;;;;;;;14.82;4.13;;;28.10;99.90;;;;;;6335276;22;20427;-87
2022/08/30 12:52:54;;;;;;;7.50;3.17;;;28.40;99.90;;;;;;6308151;22;20056;-90
2022/08/30 12:55:23;;;;;;;7.63;3.55;;;27.50;99.90;;;;;;6307660;22;20519;-89
2022/08/30 12:57:57;;;;;;;0.10;0.08;;;27.60;99.90;;;;;;6334890;22;19999;-89
2022/08/30 13:00:25;;;;;;;0.20;0.20;;;;;;;;;;6308320;22;20014;-90
2022/08/30 13:02:54;;;;;;;3.35;2.22;;;27.80;99.90;;;;;;6335936;22;19995;-88
2022/08/30 13:05:38;;;;;;;5.40;1.60;;;28.00;99.90;;;;;;6335232;22;20009;-89